EmailTwitter


Observations de surface / Québec / CYQB (71714)

Régions: Québec | Canada | États-Unis | Europe | France | UK | Ailleurs
Station
Affichage
Infos & localisation pour CYQB (71714) | Aide pour décoder les METARs

Observations prises le 2018-09-22 à 19H00 UTC à QUEBEC A, QB (CYQB)

Etat du ciel: ciel variable.

Température: 14.0 Celsius

Point de rosée: 2.0 Celsius

Humidité relative: 44%

Facteur vent (rafales): 12.

Vents: Ouest à 19 km/h ou 10 noeuds.

Rafale du vent: 33 km/h ou 18 noeuds.

Pression au niveau moyen de la mer: 102.06 kilopascals.

Calage altimétrique: 102.03 kilopascals ou 30.13 pouces de mercure.

Visibilité horizontale: 30.00 milles terrestres ou 48.00 kilomètres.

Observation METAR:

CYQB 221900Z 27010G18KT 250V320 30SM FEW058 SCT250 14/02 A3013 RMK SC2CI1

SLP206=